Charlotte, MI

9:15 AM EDT on October 20, 2017 (GMT -0400)
Charlotte

Weather History for KFPK - October, 2013

Change the Weather History Date:

Sunday, October 13, 2013

  Actual Average (KLAN) Record (KLAN)
Temperature  
Mean Temperature 53 °F -  
Max Temperature 64 °F 60 °F 83 °F (1975)
Min Temperature 42 °F 38 °F 16 °F (1874)
Degree Days  
Heating Degree Days 12    
Growing Degree Days 3 (Base 50)    
Moisture  
Dew Point 47 °F    
Average Humidity 75    
Maximum Humidity 100    
Minimum Humidity 40    
Precipitation  
Precipitation 0.00 in - - ()
Sea Level Pressure  
Sea Level Pressure 30.26 in    
Wind  
Wind Speed 3 mph (WNW)    
Max Wind Speed 9 mph    
Max Gust Speed 16 mph    
Visibility 9 miles    
Events Fog    
Averages and records for this station are not official NWS values.
T = Trace of Precipitation, MM = Missing Value Source: NWS Daily Summary

Daily Weather History Graph

Daily Weather History Graph

Search for Another Location

Airport or City:

Trip Planner

Search our weather history database for the weather conditions in past years. The results will help you decide how hot, cold, wet, or windy it might be!

Date:

Astronomy

Oct. 13, 2013 Rise Set
Actual Time 7:50 AM EDT 6:59 PM EDT
Civil Twilight 7:21 AM EDT 7:28 PM EDT
Nautical Twilight 6:49 AM EDT 8:00 PM EDT
Astronomical Twilight 6:16 AM EDT 8:33 PM EDT
Moon 3:57 PM EDT (10/13) 1:52 AM EDT (10/13)
Length of Visible Light 12h 06m
Length of Day
11h 09m
Waxing Gibbous, 69% of the Moon is Illuminated
Oct 13
Waxing Gibbous
Oct 18
Full
Oct 26
Last Quarter
Nov 3
New
Nov 10
First Quarter

Hourly Weather History & Observations

Time (EDT) Temp. Dew Point Humidity Pressure Visibility Wind Dir Wind Speed Gust Speed Precip Events Conditions
12:15 AM 63.0 °F 61.9 °F 96% 30.10 in 5.0 mi Calm Calm - N/A   Overcast
12:35 AM 63.1 °F 62.1 °F 96% 30.10 in 5.0 mi West 3.5 mph - N/A   Overcast
12:55 AM 63.0 °F 61.9 °F 96% 30.11 in 5.0 mi West 4.6 mph - N/A   Overcast
1:15 AM 62.2 °F 61.2 °F 96% 30.11 in 5.0 mi West 4.6 mph - N/A   Mostly Cloudy
1:35 AM 61.5 °F 60.3 °F 96% 30.12 in 5.0 mi West 4.6 mph - N/A   Scattered Clouds
1:55 AM 61.0 °F 59.4 °F 94% 30.13 in 5.0 mi West 4.6 mph - N/A   Mostly Cloudy
2:15 AM 60.1 °F 58.1 °F 93% 30.14 in 7.0 mi West 4.6 mph - N/A   Scattered Clouds
2:35 AM 59.0 °F 56.8 °F 93% 30.15 in 7.0 mi West 4.6 mph - N/A   Clear
2:55 AM 58.1 °F 56.1 °F 93% 30.16 in 7.0 mi WNW 3.5 mph - N/A   Clear
3:15 AM 57.2 °F 54.5 °F 91% 30.16 in 10.0 mi WNW 3.5 mph - N/A   Clear
3:35 AM 56.1 °F 53.6 °F 91% 30.16 in 10.0 mi West 4.6 mph - N/A   Clear
3:55 AM 55.0 °F 52.7 °F 92% 30.17 in 10.0 mi Calm Calm - N/A   Clear
4:15 AM 54.5 °F 51.8 °F 91% 30.17 in 10.0 mi Calm Calm - N/A   Clear
4:35 AM 52.0 °F 50.7 °F 95% 30.18 in 10.0 mi Calm Calm - N/A   Clear
4:55 AM 50.0 °F 49.5 °F 98% 30.19 in 10.0 mi Calm Calm - N/A   Clear
5:15 AM 48.7 °F 48.4 °F 99% 30.20 in 10.0 mi West 3.5 mph - N/A   Clear
5:35 AM 51.3 °F 49.3 °F 93% 30.21 in 10.0 mi West 4.6 mph - N/A   Clear
5:55 AM 51.6 °F 48.6 °F 89% 30.22 in 10.0 mi WNW 3.5 mph - N/A   Clear
6:15 AM 51.1 °F 48.7 °F 92% 30.22 in 10.0 mi Calm Calm - N/A   Clear
6:35 AM 50.2 °F 48.6 °F 94% 30.23 in 10.0 mi Calm Calm - N/A   Clear
6:55 AM 46.9 °F 46.4 °F 98% 30.23 in 7.0 mi Calm Calm - N/A   Clear
7:15 AM 45.7 °F 45.7 °F 100% 30.23 in 0.8 mi Calm Calm - N/A   Mist
7:35 AM 43.7 °F 43.7 °F 100% 30.24 in 0.5 mi Calm Calm - N/A Fog Fog
7:55 AM 43.0 °F 43.0 °F 100% 30.25 in 0.2 mi Calm Calm - N/A Fog Fog
8:15 AM 42.6 °F 42.6 °F 100% 30.26 in 0.2 mi Calm Calm - N/A Fog Fog
8:35 AM 42.6 °F 42.6 °F 100% 30.26 in 3.0 mi Calm Calm - N/A   Clear
8:55 AM 46.6 °F 46.6 °F 100% 30.26 in 7.0 mi Calm Calm - N/A   Clear
9:15 AM 50.0 °F 50.0 °F 100% 30.27 in 7.0 mi Calm Calm - N/A   Clear
9:35 AM 54.0 °F 50.9 °F 89% 30.28 in 10.0 mi Calm Calm - N/A   Clear
9:55 AM 56.3 °F 48.9 °F 76% 30.28 in 10.0 mi West 5.8 mph - N/A   Clear
10:15 AM 57.0 °F 48.6 °F 73% 30.29 in 10.0 mi WNW 3.5 mph - N/A   Clear
10:35 AM 58.5 °F 48.0 °F 68% 30.29 in 10.0 mi NW 6.9 mph - N/A   Clear
10:55 AM 59.4 °F 46.4 °F 62% 30.30 in 10.0 mi WNW 8.1 mph - N/A   Clear
11:15 AM 59.5 °F 46.6 °F 62% 30.30 in 10.0 mi NW 8.1 mph - N/A   Clear
11:35 AM 59.7 °F 46.2 °F 61% 30.31 in 10.0 mi WNW 4.6 mph - N/A   Clear
11:55 AM 60.8 °F 44.4 °F 55% 30.31 in 10.0 mi WNW 6.9 mph - N/A   Clear
12:15 PM 61.0 °F 44.6 °F 55% 30.31 in 10.0 mi NW 4.6 mph - N/A   Clear
12:35 PM 62.6 °F 42.1 °F 47% 30.31 in 10.0 mi West 9.2 mph - N/A   Clear
12:55 PM 62.6 °F 43.5 °F 50% 30.30 in 10.0 mi NW 4.6 mph - N/A   Clear
1:15 PM 63.1 °F 41.9 °F 46% 30.30 in 10.0 mi NW 9.2 mph - N/A   Clear
1:35 PM 63.5 °F 42.6 °F 47% 30.30 in 10.0 mi WNW 6.9 mph - N/A   Clear
1:55 PM 64.0 °F 42.8 °F 46% 30.29 in 10.0 mi NW 6.9 mph - N/A   Clear
2:15 PM 64.2 °F 44.2 °F 48% 30.29 in 10.0 mi WNW 6.9 mph - N/A   Clear
2:35 PM 64.4 °F 43.9 °F 47% 30.29 in 10.0 mi West 5.8 mph - N/A   Clear
2:55 PM 64.6 °F 42.8 °F 45% 30.29 in 10.0 mi WNW 9.2 mph - N/A   Clear
3:15 PM 64.4 °F 42.6 °F 45% 30.28 in 10.0 mi WNW 6.9 mph - N/A   Clear
3:35 PM 64.9 °F 39.9 °F 40% 30.29 in 10.0 mi West 5.8 mph - N/A   Clear
3:55 PM 64.4 °F 41.2 °F 43% 30.29 in 10.0 mi WNW 6.9 mph - N/A   Clear
4:15 PM 64.6 °F 41.7 °F 43% 30.29 in 10.0 mi WNW 6.9 mph - N/A   Clear
4:35 PM 64.6 °F 40.8 °F 42% 30.29 in 10.0 mi West 9.2 mph 16.1 mph N/A   Clear
4:55 PM 63.9 °F 41.4 °F 44% 30.29 in 10.0 mi WSW 6.9 mph 10.4 mph N/A   Clear
5:15 PM 63.5 °F 43.7 °F 48% 30.29 in 10.0 mi West 8.1 mph - N/A   Clear
5:35 PM 62.6 °F 42.8 °F 48% 30.29 in 10.0 mi West 8.1 mph - N/A   Clear
5:55 PM 61.7 °F 42.8 °F 50% 30.30 in 10.0 mi WNW 5.8 mph - N/A   Clear
6:15 PM 60.3 °F 42.6 °F 52% 30.30 in 10.0 mi West 8.1 mph - N/A   Clear
6:35 PM 59.0 °F 42.6 °F 55% 30.31 in 10.0 mi West 4.6 mph - N/A   Clear
6:55 PM 57.2 °F 43.2 °F 59% 30.31 in 10.0 mi West 3.5 mph - N/A   Clear
7:15 PM 55.6 °F 43.0 °F 63% 30.32 in 10.0 mi West 3.5 mph - N/A   Clear
7:35 PM 54.9 °F 43.3 °F 65% 30.32 in 10.0 mi West 3.5 mph - N/A   Clear
7:55 PM 53.6 °F 43.7 °F 69% 30.33 in 10.0 mi Calm Calm - N/A   Clear
8:15 PM 52.2 °F 43.7 °F 73% 30.33 in 10.0 mi West 3.5 mph - N/A   Clear
8:35 PM 52.0 °F 43.7 °F 73% 30.33 in 10.0 mi West 5.8 mph - N/A   Clear
8:55 PM 51.1 °F 43.7 °F 76% 30.34 in 10.0 mi West 3.5 mph - N/A   Clear
9:15 PM 50.5 °F 43.7 °F 77% 30.34 in 10.0 mi WNW 3.5 mph - N/A   Clear
9:35 PM 50.0 °F 43.7 °F 79% 30.35 in 10.0 mi West 3.5 mph - N/A   Clear
9:55 PM 48.2 °F 43.2 °F 83% 30.35 in 10.0 mi Calm Calm - N/A   Clear
10:15 PM 48.2 °F 43.2 °F 83% 30.36 in 10.0 mi West 3.5 mph - N/A   Clear
10:35 PM 48.2 °F 43.3 °F 83% 30.36 in 10.0 mi Calm Calm - N/A   Clear
10:55 PM 47.3 °F 43.2 °F 86% 30.36 in 10.0 mi Calm Calm - N/A   Clear
11:15 PM 46.6 °F 43.0 °F 87% 30.36 in 10.0 mi Calm Calm - N/A   Clear
11:35 PM 46.4 °F 42.8 °F 87% 30.36 in 10.0 mi Calm Calm - N/A   Clear
11:55 PM 45.7 °F 42.6 °F 89% 30.37 in 10.0 mi Calm Calm - N/A   Clear